Prudhoe Bay, AK

2:44 PM AKST on February 07, 2016 (GMT -0900)
Deadhorse | | Change Station
CLOSE
Current Station
Airport
Location: Deadhorse,
Elevation: 59 ft
Nearby Weather Stations

Elev 59 ft 70.19 °N, 148.47 °W | Updated 51 minutes ago

Blowing Snow
Blowing Snow Mist
-12 °F
Feels Like -39 °F
N
22
Wind Variable Wind from ENE

Today
High -- | Low -- °F
--% Chance of Precip.
Yesterday
High -- | Low -- °F
Precip. -- in
Pressure 30.18 in
Visibility 1.2 miles
Clouds Scattered Clouds 300 ft
Windchill -39 °F
Dew Point -18 °F
Humidity 74%
Rainfall 0.00 in
Snow Depth Not available.
10:10 AM 4:06 PM
Waning Crescent, 1% visible
METAR PASC 072253Z 07019KT 1 1/4SM R05/6000VP6000FT BLSN BR SCT003 M24/M28 A3017 RMK AO2 SLP218 T12441278
Pressure 30.18 in
Visibility 1.2 miles
Clouds Scattered Clouds 300 ft
Windchill -39 °F
Dew Point -18 °F
Humidity 74%
Rainfall 0.00 in
Snow Depth Not available.
10:10 AM 4:06 PM
Waning Crescent, 1% visible
METAR PASC 072253Z 07019KT 1 1/4SM R05/6000VP6000FT BLSN BR SCT003 M24/M28 A3017 RMK AO2 SLP218 T12441278

10-Day Weather Forecast

Almanac

Astronomy

Feb. 07, 2016 Rise Set
Actual Time
Civil Twilight
Nautical Twilight
Astronomical Twilight
Moon
Length of Visible Light
Length of Day
Tomorrow will be .
, % of the Moon is Illuminated

Today's Extremes

State Highs State Lows

Community

WunderPhotos

Upload Photos

1,891,329 photos uploaded!

WunderBlog® & News

Nearby

Air Quality

  Air Quality AQ Index Pollutant
Not available.

Snow Depth

Station Depth Elevation

Earthquake Activity

City Distance Mag. Time & Date
Minimum magnitude displayed is 2.5.

Coastal Water Temperatures

Place Temperature

Stations

Nearby Weather Stations

Station Location Temp. Windchill Dew Point Humidity Wind Precip. Elev Updated Type
                   

Watches & Warnings

There are currently no watches in effect.